Magnolia, North Carolina
Current Conditions -  °F | °C
As of 4:35 PM on Monday 24 Nov 2014 (Local Time) from KDPL Reporting Station
Drizzle Drizzle  
Wind Chill: 67°   Ceiling: 2900
Heat Index: 67°   Visibility: 7mi
Dew Point: 64°   Wind: 3mph
Humidity: 89%   Direction: 220°SW
Pressure: 29.88"   Gusts: NA
Location:  34.9°N, 78.05°W
Report Text: KDPL 242135Z AUTO 22003KT 7SM -DZ OVC029 20/18 A2988 RMK AO2 T01950177
Loading
Personal Weather Stations






























Interactive Weather Map New forecast layout! Learn more

10-Day Weather Forecast

Advertisements
Track Severe Weather on mobile